createdAt,value
2023-02-11T00:03:22.597Z,39.75
2023-02-11T00:08:24.133Z,39.83
2023-02-11T00:13:26.171Z,43.45
2023-02-11T00:18:28.136Z,41.47
2023-02-11T00:23:29.692Z,39.08
2023-02-11T00:28:31.280Z,40.10
2023-02-11T00:33:32.893Z,43.28
2023-02-11T00:38:34.543Z,39.05
2023-02-11T00:43:36.599Z,36.63
2023-02-11T00:48:38.297Z,31.52
2023-02-11T00:53:40.238Z,42.53
2023-02-11T00:58:41.770Z,31.00
2023-02-11T01:03:43.360Z,35.60
2023-02-11T01:08:45.107Z,38.00
2023-02-11T01:13:49.188Z,35.25
2023-02-11T01:18:50.797Z,30.88
2023-02-11T01:23:52.904Z,29.88
2023-02-11T01:28:54.468Z,31.92
2023-02-11T01:33:55.958Z,32.88
2023-02-11T01:38:57.469Z,32.78
2023-02-11T01:43:58.987Z,32.38
2023-02-11T01:49:08.810Z,28.35
2023-02-11T01:54:32.614Z,25.25
2023-02-11T01:59:40.906Z,28.70
2023-02-11T02:04:57.822Z,25.85
2023-02-11T02:10:07.709Z,27.48
2023-02-11T02:15:33.325Z,24.10
2023-02-11T02:20:51.656Z,31.73
2023-02-11T02:25:55.975Z,31.10
2023-02-11T02:31:23.167Z,34.22
2023-02-11T02:36:48.758Z,23.70
2023-02-11T02:41:53.456Z,27.08
2023-02-11T02:46:55.200Z,30.30
2023-02-11T02:52:15.732Z,30.02
2023-02-11T02:57:28.846Z,24.70
2023-02-11T03:03:04.296Z,25.30
2023-02-11T03:08:11.867Z,26.42
2023-02-11T03:13:17.394Z,25.73
2023-02-11T03:18:22.786Z,23.90
2023-02-11T03:23:36.575Z,25.17
2023-02-11T03:28:56.116Z,24.98
2023-02-11T03:34:08.852Z,23.57
2023-02-11T03:39:13.556Z,26.77
2023-02-11T03:44:17.099Z,22.73
2023-02-11T03:49:21.867Z,23.98
2023-02-11T03:54:29.750Z,20.20
2023-02-11T03:59:31.220Z,25.90
2023-02-11T04:04:32.767Z,23.60
2023-02-11T04:09:35.769Z,24.35
2023-02-11T04:14:37.333Z,22.92
2023-02-11T04:19:39.121Z,22.60
2023-02-11T04:24:40.923Z,22.95
2023-02-11T04:29:42.502Z,15.82
2023-02-11T04:34:44.077Z,23.55
2023-02-11T04:39:45.539Z,15.52
2023-02-11T04:44:47.120Z,17.85
2023-02-11T04:49:48.703Z,17.40
2023-02-11T04:54:50.198Z,21.58
2023-02-11T04:59:51.679Z,21.90
2023-02-11T05:04:53.182Z,21.13
2023-02-11T05:09:54.677Z,24.58
2023-02-11T05:14:56.355Z,45.67
2023-02-11T05:19:57.899Z,58.50
2023-02-11T05:24:59.479Z,24.30
2023-02-11T05:30:00.979Z,17.20
2023-02-11T05:35:02.584Z,25.05
2023-02-11T05:40:04.923Z,28.05
2023-02-11T05:45:06.834Z,26.17
2023-02-11T05:50:08.765Z,26.17
2023-02-11T05:55:10.444Z,21.55
2023-02-11T06:00:12.442Z,22.08
2023-02-11T06:05:13.984Z,17.95
2023-02-11T06:10:15.629Z,17.85
2023-02-11T06:15:17.147Z,19.42
2023-02-11T06:20:19.537Z,20.23
2023-02-11T06:25:21.057Z,19.02
2023-02-11T06:30:22.640Z,22.38
2023-02-11T06:35:24.311Z,23.33
2023-02-11T06:40:25.923Z,24.15
2023-02-11T06:45:27.470Z,27.42
2023-02-11T06:50:29.671Z,27.48
2023-02-11T06:55:31.247Z,25.25
2023-02-11T07:00:32.876Z,23.55
2023-02-11T07:05:35.148Z,26.40
2023-02-11T07:10:37.190Z,27.25
2023-02-11T07:15:38.728Z,24.98
2023-02-11T07:20:40.558Z,30.52
2023-02-11T07:25:42.161Z,29.35
2023-02-11T07:30:43.760Z,28.55
2023-02-11T07:35:45.325Z,29.00
2023-02-11T07:40:47.127Z,24.60
2023-02-11T07:45:49.223Z,32.40
2023-02-11T07:50:51.402Z,26.00
2023-02-11T07:55:53.123Z,26.20
2023-02-11T08:00:55.331Z,31.17
2023-02-11T08:05:57.514Z,28.35
2023-02-11T08:10:59.347Z,31.45
2023-02-11T08:16:01.092Z,33.88
2023-02-11T08:21:08.181Z,31.92
2023-02-11T08:26:16.387Z,31.55
2023-02-11T08:31:20.954Z,28.85
2023-02-11T08:36:25.787Z,26.50
2023-02-11T08:41:30.246Z,34.13
2023-02-11T08:46:31.961Z,30.42
2023-02-11T08:51:33.864Z,29.30
2023-02-11T08:56:36.381Z,29.67
2023-02-11T09:01:38.052Z,27.50
2023-02-11T09:06:40.023Z,25.67
2023-02-11T09:11:43.941Z,28.85
2023-02-11T09:16:45.765Z,28.50
2023-02-11T09:21:47.691Z,26.88
2023-02-11T09:26:49.800Z,30.77
2023-02-11T09:31:51.634Z,30.15
2023-02-11T09:36:53.342Z,28.02
2023-02-11T09:42:14.977Z,22.70
2023-02-11T09:47:23.711Z,23.10
2023-02-11T09:52:56.749Z,23.38
2023-02-11T09:57:59.042Z,19.60
2023-02-11T10:03:38.020Z,20.08
2023-02-11T10:09:17.182Z,23.42
2023-02-11T10:14:46.796Z,23.10
2023-02-11T10:20:02.299Z,23.03
2023-02-11T10:25:19.142Z,24.00
2023-02-11T10:30:27.271Z,25.27
2023-02-11T10:35:32.581Z,24.80
2023-02-11T10:40:34.868Z,28.10
2023-02-11T10:45:43.580Z,24.60
2023-02-11T10:50:45.801Z,26.10
2023-02-11T10:55:55.676Z,24.23
2023-02-11T11:00:59.906Z,26.03
2023-02-11T11:06:03.967Z,28.02
2023-02-11T11:11:09.106Z,19.65
2023-02-11T11:16:13.660Z,19.58
2023-02-11T11:21:19.663Z,16.90
2023-02-11T11:26:22.568Z,18.13
2023-02-11T11:31:32.354Z,13.98
2023-02-11T11:36:39.147Z,15.60
2023-02-11T11:41:53.819Z,12.40
2023-02-11T11:47:07.582Z,12.85
2023-02-11T11:52:32.324Z,17.13
2023-02-11T11:57:38.457Z,13.48
2023-02-11T12:03:10.478Z,18.00
2023-02-11T12:08:17.907Z,16.20
2023-02-11T12:13:41.280Z,19.90
2023-02-11T12:19:07.842Z,21.55
2023-02-11T12:24:23.822Z,18.92
2023-02-11T12:29:43.838Z,20.27
2023-02-11T12:35:02.691Z,26.48
2023-02-11T12:40:16.240Z,20.35
2023-02-11T12:45:29.596Z,21.90
2023-02-11T12:51:00.103Z,25.80
2023-02-11T13:01:15.789Z,22.95
2023-02-11T13:06:22.637Z,22.05
2023-02-11T13:11:32.451Z,18.15
2023-02-11T13:16:47.809Z,22.70
2023-02-11T13:22:08.510Z,23.95
2023-02-11T13:27:36.233Z,19.15
2023-02-11T13:32:56.159Z,22.85
2023-02-11T13:38:00.124Z,26.13
2023-02-11T13:43:06.030Z,25.50
2023-02-11T13:48:47.785Z,23.83
2023-02-11T13:53:53.854Z,23.83
2023-02-11T13:58:55.627Z,22.52
2023-02-11T14:04:42.400Z,19.42
2023-02-11T14:09:43.897Z,28.90
2023-02-11T14:15:17.075Z,23.70
2023-02-11T14:20:36.261Z,29.70
2023-02-11T14:25:41.835Z,26.08
2023-02-11T14:30:51.394Z,24.92
2023-02-11T14:36:19.968Z,23.57
2023-02-11T14:41:30.654Z,23.33
2023-02-11T14:46:33.379Z,27.80
2023-02-11T14:51:38.532Z,30.45
2023-02-11T14:56:40.096Z,29.70
2023-02-11T15:01:42.338Z,26.08
2023-02-11T15:06:49.644Z,30.92
2023-02-11T15:11:52.436Z,29.30
2023-02-11T15:16:56.282Z,26.42
2023-02-11T15:21:59.413Z,28.52
2023-02-11T15:27:09.426Z,22.00
2023-02-11T15:32:17.318Z,28.98
2023-02-11T15:37:23.703Z,24.67
2023-02-11T15:42:38.086Z,22.90
2023-02-11T15:47:53.487Z,33.88
2023-02-11T15:52:57.208Z,20.50
2023-02-11T15:58:01.998Z,26.25
2023-02-11T16:03:04.669Z,23.35
2023-02-11T16:08:41.594Z,24.90
2023-02-11T16:13:47.444Z,30.02
2023-02-11T16:19:04.931Z,29.63
2023-02-11T16:24:08.232Z,28.27
2023-02-11T16:29:14.488Z,30.10
2023-02-11T16:34:25.876Z,24.70
2023-02-11T16:39:27.428Z,26.48
2023-02-11T16:44:29.689Z,28.65
2023-02-11T16:49:37.643Z,28.25
2023-02-11T16:54:39.285Z,39.78
2023-02-11T16:59:40.809Z,31.48
2023-02-11T17:04:43.240Z,28.48
2023-02-11T17:09:44.888Z,32.22
2023-02-11T17:14:46.850Z,48.97
2023-02-11T17:19:48.404Z,30.65
2023-02-11T17:24:52.758Z,34.92
2023-02-11T17:29:54.370Z,37.40
2023-02-11T17:34:55.949Z,38.03
2023-02-11T17:39:57.416Z,39.67
2023-02-11T17:44:58.925Z,30.60
2023-02-11T17:50:01.172Z,39.35
2023-02-11T17:55:02.672Z,39.63
2023-02-11T18:00:05.823Z,27.27
2023-02-11T18:05:07.765Z,38.35
2023-02-11T18:10:09.719Z,37.90
2023-02-11T18:15:11.479Z,37.65
2023-02-11T18:20:13.362Z,30.08
2023-02-11T18:25:16.221Z,37.08
2023-02-11T18:30:19.095Z,45.22
2023-02-11T18:35:20.628Z,37.95
2023-02-11T18:40:22.186Z,34.45
2023-02-11T18:45:24.587Z,34.92
2023-02-11T18:50:26.187Z,33.75
2023-02-11T18:55:27.708Z,40.95
2023-02-11T19:00:31.237Z,33.30
2023-02-11T19:05:39.885Z,33.67
2023-02-11T19:10:43.233Z,40.35
2023-02-11T19:15:46.031Z,40.28
2023-02-11T19:20:47.584Z,31.90
2023-02-11T19:25:49.298Z,28.23
2023-02-11T19:30:50.964Z,28.10
2023-02-11T19:35:52.802Z,36.92
2023-02-11T19:40:57.974Z,40.50
2023-02-11T19:46:02.419Z,36.78
2023-02-11T19:51:10.792Z,32.25
2023-02-11T19:56:14.854Z,28.70
2023-02-11T20:01:19.693Z,25.58
2023-02-11T20:06:24.407Z,35.20
2023-02-11T20:11:28.239Z,47.05
2023-02-11T20:16:47.037Z,39.70
2023-02-11T20:21:53.139Z,41.80
2023-02-11T20:26:56.090Z,45.13
2023-02-11T20:31:57.909Z,30.10
2023-02-11T20:37:00.075Z,35.90
2023-02-11T20:42:01.557Z,50.17
2023-02-11T20:47:03.082Z,44.03
2023-02-11T20:52:04.642Z,34.65
2023-02-11T20:57:07.220Z,42.35
2023-02-11T21:02:10.307Z,40.33
2023-02-11T21:07:11.851Z,41.97
2023-02-11T21:12:13.476Z,40.67
2023-02-11T21:17:15.319Z,40.13
2023-02-11T21:22:16.816Z,38.05
2023-02-11T21:27:18.369Z,33.25
2023-02-11T21:32:19.849Z,28.40
2023-02-11T21:37:23.165Z,27.83
2023-02-11T21:42:24.707Z,36.90
2023-02-11T21:47:26.232Z,41.55
2023-02-11T21:52:27.732Z,35.42
2023-02-11T21:57:29.358Z,36.17
2023-02-11T22:02:30.912Z,30.80
2023-02-11T22:07:38.365Z,30.17
2023-02-11T22:12:39.867Z,30.30
2023-02-11T22:17:41.381Z,37.80
2023-02-11T22:22:43.017Z,29.90
2023-02-11T22:27:44.567Z,28.30
2023-02-11T22:32:47.433Z,32.60
2023-02-11T22:37:48.914Z,29.67
2023-02-11T22:42:50.439Z,29.52
2023-02-11T22:47:53.166Z,23.83
2023-02-11T22:52:54.647Z,19.30
2023-02-11T22:57:56.220Z,26.30
2023-02-11T23:02:57.757Z,22.95
2023-02-11T23:07:59.640Z,21.48
2023-02-11T23:13:01.274Z,18.80
2023-02-11T23:18:02.828Z,25.13
2023-02-11T23:23:04.957Z,22.90
2023-02-11T23:28:06.637Z,21.17
2023-02-11T23:33:08.173Z,25.80
2023-02-11T23:38:09.766Z,17.00
2023-02-11T23:43:11.303Z,18.63
2023-02-11T23:48:12.834Z,21.77
2023-02-11T23:53:15.003Z,22.20
2023-02-11T23:58:16.542Z,27.45
